sensor_id;sensor_type;location;lat;lon;timestamp;pressure;altitude;pressure_sealevel;temperature;humidity
38530;BME280;24301;54.332;48.386;2023-10-09T00:01:04;96344.16;;;1.35;66.42
38530;BME280;24301;54.332;48.386;2023-10-09T00:03:31;96346.72;;;1.35;66.88
38530;BME280;24301;54.332;48.386;2023-10-09T00:05:57;96340.81;;;1.30;66.97
38530;BME280;24301;54.332;48.386;2023-10-09T00:08:24;96338.97;;;1.35;67.01
38530;BME280;24301;54.332;48.386;2023-10-09T00:11:00;96346.84;;;1.31;66.88
38530;BME280;24301;54.332;48.386;2023-10-09T00:13:47;96347.81;;;1.25;67.29
38530;BME280;24301;54.332;48.386;2023-10-09T00:16:24;96349.66;;;1.18;67.60
38530;BME280;24301;54.332;48.386;2023-10-09T00:19:05;96347.13;;;1.15;67.33
38530;BME280;24301;54.332;48.386;2023-10-09T00:21:47;96357.50;;;1.13;68.10
38530;BME280;24301;54.332;48.386;2023-10-09T00:24:14;96324.72;;;1.14;68.13
38530;BME280;24301;54.332;48.386;2023-10-09T00:26:45;96346.38;;;1.10;67.99
38530;BME280;24301;54.332;48.386;2023-10-09T00:29:15;96347.13;;;1.13;68.63
38530;BME280;24301;54.332;48.386;2023-10-09T00:31:51;96351.53;;;1.10;68.77
38530;BME280;24301;54.332;48.386;2023-10-09T00:34:29;96364.41;;;1.14;69.07
38530;BME280;24301;54.332;48.386;2023-10-09T00:36:56;96357.53;;;1.12;68.41
38530;BME280;24301;54.332;48.386;2023-10-09T00:39:29;96351.50;;;1.11;68.69
38530;BME280;24301;54.332;48.386;2023-10-09T00:42:15;96341.25;;;1.05;68.66
38530;BME280;24301;54.332;48.386;2023-10-09T00:44:51;96347.44;;;0.98;69.43
38530;BME280;24301;54.332;48.386;2023-10-09T00:47:17;96352.56;;;0.99;69.77
38530;BME280;24301;54.332;48.386;2023-10-09T00:50:00;96353.50;;;0.95;69.90
38530;BME280;24301;54.332;48.386;2023-10-09T00:52:54;96359.59;;;0.93;69.59
38530;BME280;24301;54.332;48.386;2023-10-09T00:55:32;96364.78;;;0.91;70.02
38530;BME280;24301;54.332;48.386;2023-10-09T00:58:25;96355.38;;;0.87;69.71
38530;BME280;24301;54.332;48.386;2023-10-09T01:00:51;96366.56;;;0.89;69.83
38530;BME280;24301;54.332;48.386;2023-10-09T01:03:19;96363.91;;;0.92;70.33
38530;BME280;24301;54.332;48.386;2023-10-09T01:05:50;96350.19;;;0.89;70.47
38530;BME280;24301;54.332;48.386;2023-10-09T01:08:27;96357.91;;;0.90;70.84
38530;BME280;24301;54.332;48.386;2023-10-09T01:11:14;96351.09;;;0.84;71.15
38530;BME280;24301;54.332;48.386;2023-10-09T01:14:09;96346.81;;;0.85;70.83
38530;BME280;24301;54.332;48.386;2023-10-09T01:16:35;96356.28;;;0.84;71.21
38530;BME280;24301;54.332;48.386;2023-10-09T01:19:00;96355.41;;;0.85;71.35
38530;BME280;24301;54.332;48.386;2023-10-09T01:21:32;96357.09;;;0.86;71.49
38530;BME280;24301;54.332;48.386;2023-10-09T01:23:57;96357.09;;;0.86;71.53
38530;BME280;24301;54.332;48.386;2023-10-09T01:26:37;96360.53;;;0.89;70.85
38530;BME280;24301;54.332;48.386;2023-10-09T01:29:15;96367.44;;;0.86;71.44
38530;BME280;24301;54.332;48.386;2023-10-09T01:31:48;96351.09;;;0.84;71.22
38530;BME280;24301;54.332;48.386;2023-10-09T01:34:29;96355.47;;;0.82;71.55
38530;BME280;24301;54.332;48.386;2023-10-09T01:37:08;96367.44;;;0.86;71.97
38530;BME280;24301;54.332;48.386;2023-10-09T01:39:55;96367.38;;;0.91;72.04
38530;BME280;24301;54.332;48.386;2023-10-09T01:42:26;96357.03;;;0.93;71.96
38530;BME280;24301;54.332;48.386;2023-10-09T01:45:11;96360.44;;;0.95;71.25
38530;BME280;24301;54.332;48.386;2023-10-09T01:47:38;96359.50;;;0.99;71.61
38530;BME280;24301;54.332;48.386;2023-10-09T01:50:05;96358.53;;;1.05;71.96
38530;BME280;24301;54.332;48.386;2023-10-09T01:52:35;96362.78;;;1.09;71.83
38530;BME280;24301;54.332;48.386;2023-10-09T01:55:03;96348.91;;;1.11;71.11
38530;BME280;24301;54.332;48.386;2023-10-09T01:57:41;96359.38;;;1.05;71.23
38530;BME280;24301;54.332;48.386;2023-10-09T02:00:10;96356.78;;;1.05;71.18
38530;BME280;24301;54.332;48.386;2023-10-09T02:02:49;96335.25;;;1.03;71.75
38530;BME280;24301;54.332;48.386;2023-10-09T02:05:16;96355.09;;;1.04;71.47
38530;BME280;24301;54.332;48.386;2023-10-09T02:07:43;96350.78;;;1.03;71.56
38530;BME280;24301;54.332;48.386;2023-10-09T02:10:27;96356.97;;;0.94;71.62
38530;BME280;24301;54.332;48.386;2023-10-09T02:12:56;96363.91;;;0.94;71.60
38530;BME280;24301;54.332;48.386;2023-10-09T02:15:30;96346.66;;;0.93;71.83
38530;BME280;24301;54.332;48.386;2023-10-09T02:18:26;96345.84;;;0.91;72.03
38530;BME280;24301;54.332;48.386;2023-10-09T02:21:05;96360.56;;;0.85;72.15
38530;BME280;24301;54.332;48.386;2023-10-09T02:23:33;96357.97;;;0.85;72.37
38530;BME280;24301;54.332;48.386;2023-10-09T02:26:12;96353.75;;;0.81;72.72
38530;BME280;24301;54.332;48.386;2023-10-09T02:28:54;96363.16;;;0.87;72.05
38530;BME280;24301;54.332;48.386;2023-10-09T02:31:29;96371.72;;;0.89;71.89
38530;BME280;24301;54.332;48.386;2023-10-09T02:34:15;96363.09;;;0.90;71.93
38530;BME280;24301;54.332;48.386;2023-10-09T02:36:42;96361.38;;;0.89;72.31
38530;BME280;24301;54.332;48.386;2023-10-09T02:39:09;96363.97;;;0.89;72.60
38530;BME280;24301;54.332;48.386;2023-10-09T02:41:50;96368.22;;;0.93;72.54
38530;BME280;24301;54.332;48.386;2023-10-09T02:44:16;96370.84;;;0.90;72.91
38530;BME280;24301;54.332;48.386;2023-10-09T02:46:43;96369.16;;;0.88;72.40
38530;BME280;24301;54.332;48.386;2023-10-09T02:49:12;96369.97;;;0.91;72.38
38530;BME280;24301;54.332;48.386;2023-10-09T02:51:41;96358.78;;;0.91;72.44
38530;BME280;24301;54.332;48.386;2023-10-09T02:54:08;96360.56;;;0.85;72.29
38530;BME280;24301;54.332;48.386;2023-10-09T02:56:50;96374.25;;;0.94;72.54
38530;BME280;24301;54.332;48.386;2023-10-09T02:59:33;96380.19;;;0.99;72.48
38530;BME280;24301;54.332;48.386;2023-10-09T03:02:00;96371.44;;;1.06;72.52
38530;BME280;24301;54.332;48.386;2023-10-09T03:04:26;96372.09;;;1.18;72.62
38530;BME280;24301;54.332;48.386;2023-10-09T03:06:57;96375.13;;;1.41;72.99
38530;BME280;24301;54.332;48.386;2023-10-09T03:09:24;96378.88;;;1.69;72.12
38530;BME280;24301;54.332;48.386;2023-10-09T03:11:56;96389.63;;;1.93;71.65
38530;BME280;24301;54.332;48.386;2023-10-09T03:14:31;96381.03;;;1.91;70.93
38530;BME280;24301;54.332;48.386;2023-10-09T03:16:58;96393.69;;;2.06;70.69
38530;BME280;24301;54.332;48.386;2023-10-09T03:19:29;96393.91;;;2.35;70.59
38530;BME280;24301;54.332;48.386;2023-10-09T03:21:55;96392.44;;;2.24;70.08
38530;BME280;24301;54.332;48.386;2023-10-09T03:24:27;96387.50;;;2.12;69.36
38530;BME280;24301;54.332;48.386;2023-10-09T03:26:53;96389.16;;;2.16;69.73
38530;BME280;24301;54.332;48.386;2023-10-09T03:29:22;96372.72;;;2.17;70.19
38530;BME280;24301;54.332;48.386;2023-10-09T03:31:48;96397.91;;;2.10;69.86
38530;BME280;24301;54.332;48.386;2023-10-09T03:34:16;96393.78;;;2.00;69.65
38530;BME280;24301;54.332;48.386;2023-10-09T03:36:42;96368.31;;;1.80;70.15
38530;BME280;24301;54.332;48.386;2023-10-09T03:39:09;96386.66;;;1.69;70.50
38530;BME280;24301;54.332;48.386;2023-10-09T03:41:55;96399.75;;;1.61;70.56
38530;BME280;24301;54.332;48.386;2023-10-09T03:44:24;96381.69;;;1.58;71.12
38530;BME280;24301;54.332;48.386;2023-10-09T03:46:54;96371.31;;;1.58;70.62
38530;BME280;24301;54.332;48.386;2023-10-09T03:49:20;96402.41;;;1.58;71.45
38530;BME280;24301;54.332;48.386;2023-10-09T03:51:52;96398.94;;;1.59;71.37
38530;BME280;24301;54.332;48.386;2023-10-09T03:54:19;96397.16;;;1.61;71.83
38530;BME280;24301;54.332;48.386;2023-10-09T03:56:49;96397.06;;;1.67;71.95
38530;BME280;24301;54.332;48.386;2023-10-09T03:59:19;96393.53;;;1.71;71.57
38530;BME280;24301;54.332;48.386;2023-10-09T04:01:49;96398.72;;;1.71;71.04
38530;BME280;24301;54.332;48.386;2023-10-09T04:04:18;96403.75;;;1.78;71.34
38530;BME280;24301;54.332;48.386;2023-10-09T04:06:49;96410.69;;;1.77;71.41
38530;BME280;24301;54.332;48.386;2023-10-09T04:09:19;96408.06;;;1.79;71.29
38530;BME280;24301;54.332;48.386;2023-10-09T04:14:13;96403.75;;;1.78;71.01
38530;BME280;24301;54.332;48.386;2023-10-09T04:16:58;96405.41;;;1.82;71.14
38530;BME280;24301;54.332;48.386;2023-10-09T04:19:42;96408.75;;;1.87;71.29
38530;BME280;24301;54.332;48.386;2023-10-09T04:22:14;96414.75;;;1.89;71.05
38530;BME280;24301;54.332;48.386;2023-10-09T04:24:56;96413.88;;;1.90;71.02
38530;BME280;24301;54.332;48.386;2023-10-09T04:27:22;96419.00;;;1.93;70.92
38530;BME280;24301;54.332;48.386;2023-10-09T04:29:53;96425.84;;;1.96;71.03
38530;BME280;24301;54.332;48.386;2023-10-09T04:32:20;96417.16;;;1.98;71.23
38530;BME280;24301;54.332;48.386;2023-10-09T04:34:51;96419.72;;;2.00;71.02
38530;BME280;24301;54.332;48.386;2023-10-09T04:37:35;96421.47;;;1.99;71.07
38530;BME280;24301;54.332;48.386;2023-10-09T04:40:05;96430.88;;;2.04;71.11
38530;BME280;24301;54.332;48.386;2023-10-09T04:42:56;96422.94;;;2.11;71.07
38530;BME280;24301;54.332;48.386;2023-10-09T04:45:25;96423.75;;;2.13;70.66
38530;BME280;24301;54.332;48.386;2023-10-09T04:48:11;96434.94;;;2.17;71.05
38530;BME280;24301;54.332;48.386;2023-10-09T04:50:37;96445.09;;;2.26;70.22
38530;BME280;24301;54.332;48.386;2023-10-09T04:53:32;96445.97;;;2.25;69.96
38530;BME280;24301;54.332;48.386;2023-10-09T04:56:04;96439.00;;;2.29;69.87
38530;BME280;24301;54.332;48.386;2023-10-09T04:58:41;96446.78;;;2.29;69.83
38530;BME280;24301;54.332;48.386;2023-10-09T05:01:09;96445.78;;;2.35;70.44
38530;BME280;24301;54.332;48.386;2023-10-09T05:03:40;96444.94;;;2.33;69.78
38530;BME280;24301;54.332;48.386;2023-10-09T05:06:05;96449.31;;;2.32;69.92
38530;BME280;24301;54.332;48.386;2023-10-09T05:08:49;96438.13;;;2.30;70.13
38530;BME280;24301;54.332;48.386;2023-10-09T05:11:22;96444.94;;;2.34;70.52
38530;BME280;24301;54.332;48.386;2023-10-09T05:14:18;96449.31;;;2.30;70.04
38530;BME280;24301;54.332;48.386;2023-10-09T05:16:55;96454.56;;;2.29;70.49
38530;BME280;24301;54.332;48.386;2023-10-09T05:19:27;96444.13;;;2.30;70.69
38530;BME280;24301;54.332;48.386;2023-10-09T05:22:09;96458.00;;;2.29;70.73
38530;BME280;24301;54.332;48.386;2023-10-09T05:24:58;96462.06;;;2.40;71.16
38530;BME280;24301;54.332;48.386;2023-10-09T05:27:24;96455.16;;;2.42;71.25
38530;BME280;24301;54.332;48.386;2023-10-09T05:30:10;96455.88;;;2.47;70.54
38530;BME280;24301;54.332;48.386;2023-10-09T05:32:56;96466.19;;;2.50;71.08
38530;BME280;24301;54.332;48.386;2023-10-09T05:35:45;96455.59;;;2.59;70.88
38530;BME280;24301;54.332;48.386;2023-10-09T05:38:32;96467.56;;;2.67;70.82
38530;BME280;24301;54.332;48.386;2023-10-09T05:41:02;96460.47;;;2.75;71.15
38530;BME280;24301;54.332;48.386;2023-10-09T05:43:48;96459.41;;;2.82;70.76
38530;BME280;24301;54.332;48.386;2023-10-09T05:46:32;96454.97;;;2.87;70.34
38530;BME280;24301;54.332;48.386;2023-10-09T05:49:01;96461.84;;;2.88;70.19
38530;BME280;24301;54.332;48.386;2023-10-09T05:51:36;96472.94;;;2.95;69.77
38530;BME280;24301;54.332;48.386;2023-10-09T05:54:08;96477.22;;;2.98;69.51
38530;BME280;24301;54.332;48.386;2023-10-09T05:57:08;96483.16;;;3.03;69.96
38530;BME280;24301;54.332;48.386;2023-10-09T05:59:52;96471.09;;;3.00;69.45
38530;BME280;24301;54.332;48.386;2023-10-09T06:02:37;96476.38;;;2.97;69.35
38530;BME280;24301;54.332;48.386;2023-10-09T06:05:21;96476.28;;;3.00;69.20
38530;BME280;24301;54.332;48.386;2023-10-09T06:08:05;96484.06;;;3.00;69.48
38530;BME280;24301;54.332;48.386;2023-10-09T06:10:33;96488.28;;;3.06;69.12
38530;BME280;24301;54.332;48.386;2023-10-09T06:13:07;96493.25;;;3.15;68.75
38530;BME280;24301;54.332;48.386;2023-10-09T06:15:39;96490.34;;;3.28;68.66
38530;BME280;24301;54.332;48.386;2023-10-09T06:18:14;96491.91;;;3.35;68.35
38530;BME280;24301;54.332;48.386;2023-10-09T06:20:52;96492.41;;;3.50;68.33
38530;BME280;24301;54.332;48.386;2023-10-09T06:23:46;96465.47;;;3.54;68.15
38530;BME280;24301;54.332;48.386;2023-10-09T06:26:35;96499.25;;;3.52;67.94
38530;BME280;24301;54.332;48.386;2023-10-09T06:29:01;96491.53;;;3.51;67.78
38530;BME280;24301;54.332;48.386;2023-10-09T06:31:59;96491.72;;;3.43;67.91
38530;BME280;24301;54.332;48.386;2023-10-09T06:34:58;96505.63;;;3.40;68.06
38530;BME280;24301;54.332;48.386;2023-10-09T06:37:53;96514.19;;;3.45;68.10
38530;BME280;24301;54.332;48.386;2023-10-09T06:40:39;96504.47;;;3.52;68.37
38530;BME280;24301;54.332;48.386;2023-10-09T06:43:18;96513.16;;;3.51;68.31
38530;BME280;24301;54.332;48.386;2023-10-09T06:45:51;96519.84;;;3.62;68.78
38530;BME280;24301;54.332;48.386;2023-10-09T06:48:35;96525.13;;;3.57;68.59
38530;BME280;24301;54.332;48.386;2023-10-09T06:51:08;96530.97;;;3.65;69.11
38530;BME280;24301;54.332;48.386;2023-10-09T06:54:03;96526.38;;;3.77;68.81
38530;BME280;24301;54.332;48.386;2023-10-09T06:56:32;96513.84;;;3.91;68.92
38530;BME280;24301;54.332;48.386;2023-10-09T06:59:06;96526.72;;;3.97;68.33
38530;BME280;24301;54.332;48.386;2023-10-09T07:01:47;96532.72;;;3.99;68.57
38530;BME280;24301;54.332;48.386;2023-10-09T07:04:34;96527.34;;;4.06;68.13
38530;BME280;24301;54.332;48.386;2023-10-09T07:07:00;96524.56;;;4.12;67.72
38530;BME280;24301;54.332;48.386;2023-10-09T07:09:31;96526.34;;;4.11;67.63
38530;BME280;24301;54.332;48.386;2023-10-09T07:12:09;96526.53;;;4.03;67.74
38530;BME280;24301;54.332;48.386;2023-10-09T07:14:38;96536.31;;;3.94;67.34
38530;BME280;24301;54.332;48.386;2023-10-09T07:17:06;96525.03;;;3.95;67.76
38530;BME280;24301;54.332;48.386;2023-10-09T07:19:49;96528.69;;;3.87;67.36
38530;BME280;24301;54.332;48.386;2023-10-09T07:22:15;96540.75;;;3.90;67.83
38530;BME280;24301;54.332;48.386;2023-10-09T07:24:57;96539.78;;;3.94;67.62
38530;BME280;24301;54.332;48.386;2023-10-09T07:27:31;96544.25;;;3.89;67.64
38530;BME280;24301;54.332;48.386;2023-10-09T07:30:18;96553.09;;;3.82;67.74
38530;BME280;24301;54.332;48.386;2023-10-09T07:33:02;96547.06;;;3.81;67.86
38530;BME280;24301;54.332;48.386;2023-10-09T07:35:35;96565.31;;;3.78;67.92
38530;BME280;24301;54.332;48.386;2023-10-09T07:38:24;96553.47;;;3.66;69.02
38530;BME280;24301;54.332;48.386;2023-10-09T07:40:55;96569.66;;;3.78;68.97
38530;BME280;24301;54.332;48.386;2023-10-09T07:43:23;96556.94;;;4.00;69.26
38530;BME280;24301;54.332;48.386;2023-10-09T07:45:55;96564.47;;;4.11;69.33
38530;BME280;24301;54.332;48.386;2023-10-09T07:48:24;96569.47;;;4.19;68.99
38530;BME280;24301;54.332;48.386;2023-10-09T07:50:52;96582.38;;;4.22;68.93
38530;BME280;24301;54.332;48.386;2023-10-09T07:53:30;96560.84;;;4.18;68.96
38530;BME280;24301;54.332;48.386;2023-10-09T07:56:09;96568.88;;;4.09;69.41
38530;BME280;24301;54.332;48.386;2023-10-09T07:58:34;96582.84;;;4.05;69.43
38530;BME280;24301;54.332;48.386;2023-10-09T08:01:12;96573.34;;;4.03;69.25
38530;BME280;24301;54.332;48.386;2023-10-09T08:03:42;96586.31;;;4.05;69.12
38530;BME280;24301;54.332;48.386;2023-10-09T08:06:15;96582.66;;;4.11;69.31
38530;BME280;24301;54.332;48.386;2023-10-09T08:08:59;96580.78;;;4.16;69.19
38530;BME280;24301;54.332;48.386;2023-10-09T08:11:31;96586.84;;;4.18;68.95
38530;BME280;24301;54.332;48.386;2023-10-09T08:14:09;96585.94;;;4.19;68.78
38530;BME280;24301;54.332;48.386;2023-10-09T08:16:50;96581.69;;;4.15;68.88
38530;BME280;24301;54.332;48.386;2023-10-09T08:19:36;96592.03;;;4.18;69.06
38530;BME280;24301;54.332;48.386;2023-10-09T08:22:18;96596.09;;;4.28;68.50
38530;BME280;24301;54.332;48.386;2023-10-09T08:24:51;96594.84;;;4.42;68.78
38530;BME280;24301;54.332;48.386;2023-10-09T08:27:26;96592.19;;;4.45;67.99
38530;BME280;24301;54.332;48.386;2023-10-09T08:30:00;96578.31;;;4.44;68.01
38530;BME280;24301;54.332;48.386;2023-10-09T08:32:46;96596.59;;;4.43;67.78
38530;BME280;24301;54.332;48.386;2023-10-09T08:35:32;96593.13;;;4.41;68.22
38530;BME280;24301;54.332;48.386;2023-10-09T08:38:00;96587.28;;;4.34;67.88
38530;BME280;24301;54.332;48.386;2023-10-09T08:40:42;96593.22;;;4.38;68.29
38530;BME280;24301;54.332;48.386;2023-10-09T08:43:19;96615.09;;;4.30;67.93
38530;BME280;24301;54.332;48.386;2023-10-09T08:48:13;96613.91;;;4.44;68.05
38530;BME280;24301;54.332;48.386;2023-10-09T08:50:45;96631.03;;;4.51;67.75
38530;BME280;24301;54.332;48.386;2023-10-09T08:53:13;96624.81;;;4.57;67.86
38530;BME280;24301;54.332;48.386;2023-10-09T08:55:39;96617.03;;;4.55;67.80
38530;BME280;24301;54.332;48.386;2023-10-09T08:58:06;96616.22;;;4.53;67.33
38530;BME280;24301;54.332;48.386;2023-10-09T09:00:43;96627.66;;;4.48;67.59
38530;BME280;24301;54.332;48.386;2023-10-09T09:03:15;96640.44;;;4.57;67.40
38530;BME280;24301;54.332;48.386;2023-10-09T09:06:00;96631.50;;;4.66;67.50
38530;BME280;24301;54.332;48.386;2023-10-09T09:08:32;96630.53;;;4.70;67.52
38530;BME280;24301;54.332;48.386;2023-10-09T09:11:11;96635.00;;;4.65;67.37
38530;BME280;24301;54.332;48.386;2023-10-09T09:14:00;96628.22;;;4.59;67.54
38530;BME280;24301;54.332;48.386;2023-10-09T09:16:40;96649.25;;;4.51;67.90
38530;BME280;24301;54.332;48.386;2023-10-09T09:19:10;96660.56;;;4.50;68.22
38530;BME280;24301;54.332;48.386;2023-10-09T09:21:39;96655.53;;;4.44;68.34
38530;BME280;24301;54.332;48.386;2023-10-09T09:24:13;96660.06;;;4.36;68.62
38530;BME280;24301;54.332;48.386;2023-10-09T09:26:54;96653.19;;;4.33;68.90
38530;BME280;24301;54.332;48.386;2023-10-09T09:32:03;96660.78;;;4.41;69.31
38530;BME280;24301;54.332;48.386;2023-10-09T09:37:18;96669.88;;;4.57;69.60
38530;BME280;24301;54.332;48.386;2023-10-09T09:39:46;96663.84;;;4.57;69.29
38530;BME280;24301;54.332;48.386;2023-10-09T09:42:18;96668.19;;;4.56;69.45
38530;BME280;24301;54.332;48.386;2023-10-09T09:44:51;96670.78;;;4.56;69.01
38530;BME280;24301;54.332;48.386;2023-10-09T09:47:18;96669.16;;;4.52;68.87
38530;BME280;24301;54.332;48.386;2023-10-09T09:49:53;96687.28;;;4.57;69.23
38530;BME280;24301;54.332;48.386;2023-10-09T09:52:28;96667.97;;;4.64;69.86
38530;BME280;24301;54.332;48.386;2023-10-09T09:54:54;96673.50;;;4.52;69.17
38530;BME280;24301;54.332;48.386;2023-10-09T09:57:23;96676.88;;;4.55;68.85
38530;BME280;24301;54.332;48.386;2023-10-09T09:59:53;96668.28;;;4.52;68.76
38530;BME280;24301;54.332;48.386;2023-10-09T10:02:29;96684.06;;;4.47;69.31
38530;BME280;24301;54.332;48.386;2023-10-09T10:05:02;96682.19;;;4.52;69.36
38530;BME280;24301;54.332;48.386;2023-10-09T10:07:33;96690.69;;;4.59;69.45
38530;BME280;24301;54.332;48.386;2023-10-09T10:10:40;96689.59;;;4.68;69.29
38530;BME280;24301;54.332;48.386;2023-10-09T10:16:14;96693.94;;;4.66;68.84
38530;BME280;24301;54.332;48.386;2023-10-09T10:21:27;96700.06;;;4.65;69.57
38530;BME280;24301;54.332;48.386;2023-10-09T10:24:00;96692.31;;;4.62;69.87
38530;BME280;24301;54.332;48.386;2023-10-09T10:26:32;96687.50;;;4.48;69.43
38530;BME280;24301;54.332;48.386;2023-10-09T10:29:21;96702.09;;;4.53;70.26
38530;BME280;24301;54.332;48.386;2023-10-09T10:32:00;96701.22;;;4.53;69.75
38530;BME280;24301;54.332;48.386;2023-10-09T10:37:42;96709.94;;;4.52;70.31
38530;BME280;24301;54.332;48.386;2023-10-09T10:40:27;96701.38;;;4.48;70.04
38530;BME280;24301;54.332;48.386;2023-10-09T10:43:07;96716.00;;;4.52;70.11
38530;BME280;24301;54.332;48.386;2023-10-09T10:46:07;96720.41;;;4.50;70.37
38530;BME280;24301;54.332;48.386;2023-10-09T10:48:59;96723.91;;;4.48;70.57
38530;BME280;24301;54.332;48.386;2023-10-09T10:51:35;96720.41;;;4.50;70.62
38530;BME280;24301;54.332;48.386;2023-10-09T10:54:04;96721.31;;;4.48;70.45
38530;BME280;24301;54.332;48.386;2023-10-09T10:56:49;96725.75;;;4.44;70.98
38530;BME280;24301;54.332;48.386;2023-10-09T10:59:15;96728.28;;;4.47;70.63
38530;BME280;24301;54.332;48.386;2023-10-09T11:01:49;96727.41;;;4.46;70.63
38530;BME280;24301;54.332;48.386;2023-10-09T11:04:40;96728.41;;;4.41;70.49
38530;BME280;24301;54.332;48.386;2023-10-09T11:07:09;96729.31;;;4.40;70.91
38530;BME280;24301;54.332;48.386;2023-10-09T11:09:46;96728.41;;;4.41;70.85
38530;BME280;24301;54.332;48.386;2023-10-09T11:15:09;96744.78;;;4.46;70.73
38530;BME280;24301;54.332;48.386;2023-10-09T11:18:02;96755.94;;;4.51;70.82
38530;BME280;24301;54.332;48.386;2023-10-09T11:20:43;96742.91;;;4.51;71.00
38530;BME280;24301;54.332;48.386;2023-10-09T11:23:22;96748.16;;;4.50;70.95
38530;BME280;24301;54.332;48.386;2023-10-09T11:26:02;96740.47;;;4.45;70.64
38530;BME280;24301;54.332;48.386;2023-10-09T11:29:14;96747.69;;;4.34;70.59
38530;BME280;24301;54.332;48.386;2023-10-09T11:32:05;96754.66;;;4.31;71.11
38530;BME280;24301;54.332;48.386;2023-10-09T11:34:32;96759.72;;;4.38;71.06
38530;BME280;24301;54.332;48.386;2023-10-09T11:37:14;96755.03;;;4.52;70.76
38530;BME280;24301;54.332;48.386;2023-10-09T11:39:59;96762.19;;;4.44;70.93
38530;BME280;24301;54.332;48.386;2023-10-09T11:42:30;96755.28;;;4.43;70.75
38530;BME280;24301;54.332;48.386;2023-10-09T11:45:23;96751.81;;;4.41;70.89
38530;BME280;24301;54.332;48.386;2023-10-09T11:48:18;96750.06;;;4.43;70.66
38530;BME280;24301;54.332;48.386;2023-10-09T11:51:12;96755.31;;;4.40;70.58
38530;BME280;24301;54.332;48.386;2023-10-09T11:53:42;96756.81;;;4.50;70.72
38530;BME280;24301;54.332;48.386;2023-10-09T11:56:16;96768.59;;;4.65;70.89
38530;BME280;24301;54.332;48.386;2023-10-09T11:58:49;96770.81;;;4.79;70.70
38530;BME280;24301;54.332;48.386;2023-10-09T12:01:19;96772.44;;;4.85;70.43
38530;BME280;24301;54.332;48.386;2023-10-09T12:03:49;96780.34;;;4.80;70.27
38530;BME280;24301;54.332;48.386;2023-10-09T12:06:18;96775.94;;;4.84;69.84
38530;BME280;24301;54.332;48.386;2023-10-09T12:08:48;96771.47;;;4.87;70.25
38530;BME280;24301;54.332;48.386;2023-10-09T12:11:15;96779.25;;;4.89;69.92
38530;BME280;24301;54.332;48.386;2023-10-09T12:13:49;96768.06;;;4.85;69.78
38530;BME280;24301;54.332;48.386;2023-10-09T12:16:15;96776.69;;;4.87;69.64
38530;BME280;24301;54.332;48.386;2023-10-09T12:18:41;96783.56;;;4.90;69.78
38530;BME280;24301;54.332;48.386;2023-10-09T12:21:09;96781.69;;;4.95;69.76
38530;BME280;24301;54.332;48.386;2023-10-09T12:23:41;96779.97;;;4.94;69.56
38530;BME280;24301;54.332;48.386;2023-10-09T12:26:09;96780.09;;;4.89;69.33
38530;BME280;24301;54.332;48.386;2023-10-09T12:28:44;96795.69;;;4.91;69.67
38530;BME280;24301;54.332;48.386;2023-10-09T12:31:16;96784.38;;;4.92;69.40
38530;BME280;24301;54.332;48.386;2023-10-09T12:33:45;96792.16;;;4.94;69.20
38530;BME280;24301;54.332;48.386;2023-10-09T12:36:13;96782.56;;;4.96;69.72
38530;BME280;24301;54.332;48.386;2023-10-09T12:38:46;96785.19;;;4.94;69.42
38530;BME280;24301;54.332;48.386;2023-10-09T12:41:16;96791.56;;;4.82;69.12
38530;BME280;24301;54.332;48.386;2023-10-09T12:43:52;96796.88;;;4.79;69.36
38530;BME280;24301;54.332;48.386;2023-10-09T12:46:19;96793.28;;;4.83;69.34
38530;BME280;24301;54.332;48.386;2023-10-09T12:48:52;96804.66;;;4.79;69.16
38530;BME280;24301;54.332;48.386;2023-10-09T12:51:21;96812.56;;;4.76;69.53
38530;BME280;24301;54.332;48.386;2023-10-09T12:53:55;96809.16;;;4.74;68.99
38530;BME280;24301;54.332;48.386;2023-10-09T12:56:25;96817.84;;;4.73;69.45
38530;BME280;24301;54.332;48.386;2023-10-09T12:59:03;96812.63;;;4.73;69.37
38530;BME280;24301;54.332;48.386;2023-10-09T13:01:33;96812.72;;;4.70;69.25
38530;BME280;24301;54.332;48.386;2023-10-09T13:04:12;96817.13;;;4.66;69.90
38530;BME280;24301;54.332;48.386;2023-10-09T13:06:42;96823.19;;;4.67;69.82
38530;BME280;24301;54.332;48.386;2023-10-09T13:09:12;96817.16;;;4.65;70.06
38530;BME280;24301;54.332;48.386;2023-10-09T13:11:39;96817.94;;;4.70;70.15
38530;BME280;24301;54.332;48.386;2023-10-09T13:14:10;96825.69;;;4.71;70.23
38530;BME280;24301;54.332;48.386;2023-10-09T13:16:49;96809.34;;;4.65;70.22
38530;BME280;24301;54.332;48.386;2023-10-09T13:19:18;96826.63;;;4.69;69.91
38530;BME280;24301;54.332;48.386;2023-10-09T13:21:45;96841.34;;;4.70;70.75
38530;BME280;24301;54.332;48.386;2023-10-09T13:24:11;96834.38;;;4.70;70.51
38530;BME280;24301;54.332;48.386;2023-10-09T13:26:45;96833.53;;;4.70;70.49
38530;BME280;24301;54.332;48.386;2023-10-09T13:29:13;96846.41;;;4.76;70.40
38530;BME280;24301;54.332;48.386;2023-10-09T13:31:39;96846.41;;;4.74;70.49
38530;BME280;24301;54.332;48.386;2023-10-09T13:34:13;96856.00;;;4.74;70.35
38530;BME280;24301;54.332;48.386;2023-10-09T13:36:42;96850.75;;;4.75;70.75
38530;BME280;24301;54.332;48.386;2023-10-09T13:39:19;96871.63;;;4.72;70.35
38530;BME280;24301;54.332;48.386;2023-10-09T13:41:46;96869.16;;;4.68;70.78
38530;BME280;24301;54.332;48.386;2023-10-09T13:44:12;96864.97;;;4.60;71.31
38530;BME280;24301;54.332;48.386;2023-10-09T13:46:38;96866.09;;;4.50;71.85
38530;BME280;24301;54.332;48.386;2023-10-09T13:49:08;96869.13;;;4.31;72.49
38530;BME280;24301;54.332;48.386;2023-10-09T13:51:41;96879.56;;;4.30;72.87
38530;BME280;24301;54.332;48.386;2023-10-09T13:54:11;96882.22;;;4.27;73.33
38530;BME280;24301;54.332;48.386;2023-10-09T13:56:44;96878.81;;;4.25;73.61
38530;BME280;24301;54.332;48.386;2023-10-09T13:59:10;96890.91;;;4.26;74.26
38530;BME280;24301;54.332;48.386;2023-10-09T14:01:37;96891.84;;;4.23;74.30
38530;BME280;24301;54.332;48.386;2023-10-09T14:04:05;96882.50;;;4.14;75.00